sensor_id;sensor_type;location;lat;lon;timestamp;pressure;altitude;pressure_sealevel;temperature;humidity
29825;BME280;16713;52.916;12.834;2023-05-08T00:01:51;102078.00;;;8.54;67.10
29825;BME280;16713;52.916;12.834;2023-05-08T00:04:18;102076.47;;;8.61;67.10
29825;BME280;16713;52.916;12.834;2023-05-08T00:06:45;102074.03;;;8.60;66.86
29825;BME280;16713;52.916;12.834;2023-05-08T00:09:12;102067.78;;;8.59;68.60
29825;BME280;16713;52.916;12.834;2023-05-08T00:11:38;102074.53;;;8.62;68.07
29825;BME280;16713;52.916;12.834;2023-05-08T00:14:05;102072.13;;;8.60;68.36
29825;BME280;16713;52.916;12.834;2023-05-08T00:16:31;102071.91;;;8.57;66.79
29825;BME280;16713;52.916;12.834;2023-05-08T00:18:57;102069.28;;;8.52;68.88
29825;BME280;16713;52.916;12.834;2023-05-08T00:21:25;102076.72;;;8.51;67.95
29825;BME280;16713;52.916;12.834;2023-05-08T00:23:51;102066.66;;;8.47;68.21
29825;BME280;16713;52.916;12.834;2023-05-08T00:26:18;102066.19;;;8.45;68.25
29825;BME280;16713;52.916;12.834;2023-05-08T00:28:44;102065.59;;;8.34;68.73
29825;BME280;16713;52.916;12.834;2023-05-08T00:31:10;102071.97;;;8.30;67.72
29825;BME280;16713;52.916;12.834;2023-05-08T00:33:37;102064.28;;;8.32;67.56
29825;BME280;16713;52.916;12.834;2023-05-08T00:36:03;102074.03;;;8.24;68.25
29825;BME280;16713;52.916;12.834;2023-05-08T00:38:30;102074.22;;;8.14;68.87
29825;BME280;16713;52.916;12.834;2023-05-08T00:40:57;102072.28;;;8.15;68.14
29825;BME280;16713;52.916;12.834;2023-05-08T00:43:24;102072.72;;;8.08;69.16
29825;BME280;16713;52.916;12.834;2023-05-08T00:45:53;102070.91;;;7.90;68.36
29825;BME280;16713;52.916;12.834;2023-05-08T00:48:20;102079.75;;;7.82;67.60
29825;BME280;16713;52.916;12.834;2023-05-08T00:50:47;102077.44;;;7.75;68.04
29825;BME280;16713;52.916;12.834;2023-05-08T00:53:13;102076.50;;;7.66;68.09
29825;BME280;16713;52.916;12.834;2023-05-08T00:55:40;102076.09;;;7.59;68.91
29825;BME280;16713;52.916;12.834;2023-05-08T00:58:06;102084.50;;;7.63;69.14
29825;BME280;16713;52.916;12.834;2023-05-08T01:00:33;102074.19;;;7.60;69.02
29825;BME280;16713;52.916;12.834;2023-05-08T01:02:59;102083.25;;;7.55;69.15
29825;BME280;16713;52.916;12.834;2023-05-08T01:05:27;102078.91;;;7.54;70.48
29825;BME280;16713;52.916;12.834;2023-05-08T01:07:53;102085.50;;;7.53;69.60
29825;BME280;16713;52.916;12.834;2023-05-08T01:10:19;102078.59;;;7.56;69.58
29825;BME280;16713;52.916;12.834;2023-05-08T01:12:58;102074.44;;;7.58;70.18
29825;BME280;16713;52.916;12.834;2023-05-08T01:15:31;102080.44;;;7.60;70.54
29825;BME280;16713;52.916;12.834;2023-05-08T01:18:03;102076.78;;;7.65;69.48
29825;BME280;16713;52.916;12.834;2023-05-08T01:28:07;102083.06;;;7.65;69.11
29825;BME280;16713;52.916;12.834;2023-05-08T01:35:46;102091.47;;;7.82;68.79
29825;BME280;16713;52.916;12.834;2023-05-08T01:43:50;102098.41;;;7.94;68.60
29825;BME280;16713;52.916;12.834;2023-05-08T01:46:24;102097.00;;;7.96;67.90
29825;BME280;16713;52.916;12.834;2023-05-08T01:48:57;102092.34;;;7.97;69.29
29825;BME280;16713;52.916;12.834;2023-05-08T01:51:24;102093.25;;;8.06;68.54
29825;BME280;16713;52.916;12.834;2023-05-08T01:53:57;102094.38;;;8.05;68.97
29825;BME280;16713;52.916;12.834;2023-05-08T01:56:26;102091.13;;;8.03;68.17
29825;BME280;16713;52.916;12.834;2023-05-08T01:58:54;102093.34;;;8.01;67.70
29825;BME280;16713;52.916;12.834;2023-05-08T02:01:22;102084.94;;;7.97;68.95
29825;BME280;16713;52.916;12.834;2023-05-08T02:03:50;102096.16;;;7.96;69.02
29825;BME280;16713;52.916;12.834;2023-05-08T02:06:20;102099.72;;;7.96;67.99
29825;BME280;16713;52.916;12.834;2023-05-08T02:08:47;102100.34;;;7.93;67.23
29825;BME280;16713;52.916;12.834;2023-05-08T02:11:15;102097.59;;;7.93;68.72
29825;BME280;16713;52.916;12.834;2023-05-08T02:13:43;102085.84;;;7.93;67.70
29825;BME280;16713;52.916;12.834;2023-05-08T02:16:12;102099.44;;;7.84;67.29
29825;BME280;16713;52.916;12.834;2023-05-08T02:18:40;102093.72;;;7.81;67.48
29825;BME280;16713;52.916;12.834;2023-05-08T02:21:08;102094.81;;;7.79;67.17
29825;BME280;16713;52.916;12.834;2023-05-08T02:23:37;102096.84;;;7.74;68.48
29825;BME280;16713;52.916;12.834;2023-05-08T02:26:03;102092.16;;;7.61;68.99
29825;BME280;16713;52.916;12.834;2023-05-08T02:28:30;102096.94;;;7.69;67.16
29825;BME280;16713;52.916;12.834;2023-05-08T02:30:58;102086.72;;;7.61;68.27
29825;BME280;16713;52.916;12.834;2023-05-08T02:33:25;102089.84;;;7.54;68.36
29825;BME280;16713;52.916;12.834;2023-05-08T02:35:52;102097.81;;;7.51;68.66
29825;BME280;16713;52.916;12.834;2023-05-08T02:38:20;102100.53;;;7.51;68.32
29825;BME280;16713;52.916;12.834;2023-05-08T02:40:49;102099.31;;;7.43;69.05
29825;BME280;16713;52.916;12.834;2023-05-08T02:43:17;102093.84;;;7.43;67.84
29825;BME280;16713;52.916;12.834;2023-05-08T02:46:02;102095.53;;;7.39;68.48
29825;BME280;16713;52.916;12.834;2023-05-08T02:48:38;102093.84;;;7.43;67.74
29825;BME280;16713;52.916;12.834;2023-05-08T02:51:29;102090.31;;;7.43;67.94
29825;BME280;16713;52.916;12.834;2023-05-08T02:53:54;102092.81;;;7.39;68.43
29825;BME280;16713;52.916;12.834;2023-05-08T02:59:29;102091.91;;;7.30;68.32
29825;BME280;16713;52.916;12.834;2023-05-08T03:01:51;102094.31;;;7.32;68.20
29825;BME280;16713;52.916;12.834;2023-05-08T03:04:24;102101.78;;;7.26;69.31
29825;BME280;16713;52.916;12.834;2023-05-08T03:06:52;102099.03;;;7.26;68.28
29825;BME280;16713;52.916;12.834;2023-05-08T03:09:19;102105.41;;;7.22;69.20
29825;BME280;16713;52.916;12.834;2023-05-08T03:11:47;102101.88;;;7.21;68.15
29825;BME280;16713;52.916;12.834;2023-05-08T03:14:15;102107.72;;;7.15;68.78
29825;BME280;16713;52.916;12.834;2023-05-08T03:16:44;102106.59;;;7.16;68.35
29825;BME280;16713;52.916;12.834;2023-05-08T03:19:19;102102.75;;;7.17;68.55
29825;BME280;16713;52.916;12.834;2023-05-08T03:21:48;102093.63;;;7.08;68.36
29825;BME280;16713;52.916;12.834;2023-05-08T03:24:16;102094.53;;;7.03;69.55
29825;BME280;16713;52.916;12.834;2023-05-08T03:26:44;102097.31;;;6.98;68.83
29825;BME280;16713;52.916;12.834;2023-05-08T03:29:12;102096.81;;;6.96;68.89
29825;BME280;16713;52.916;12.834;2023-05-08T03:31:39;102099.00;;;6.94;69.74
29825;BME280;16713;52.916;12.834;2023-05-08T03:34:06;102090.72;;;6.86;68.67
29825;BME280;16713;52.916;12.834;2023-05-08T03:36:33;102093.13;;;6.87;68.94
29825;BME280;16713;52.916;12.834;2023-05-08T03:39:00;102091.59;;;6.81;69.80
29825;BME280;16713;52.916;12.834;2023-05-08T03:41:27;102092.69;;;6.80;68.65
29825;BME280;16713;52.916;12.834;2023-05-08T03:43:54;102092.75;;;6.75;69.71
29825;BME280;16713;52.916;12.834;2023-05-08T03:46:21;102095.13;;;6.82;69.05
29825;BME280;16713;52.916;12.834;2023-05-08T03:48:48;102092.75;;;6.75;69.79
29825;BME280;16713;52.916;12.834;2023-05-08T03:51:15;102087.38;;;6.70;70.05
29825;BME280;16713;52.916;12.834;2023-05-08T03:53:42;102088.25;;;6.66;69.19
29825;BME280;16713;52.916;12.834;2023-05-08T03:56:08;102093.22;;;6.64;70.63
29825;BME280;16713;52.916;12.834;2023-05-08T03:58:49;102093.66;;;6.71;69.59
29825;BME280;16713;52.916;12.834;2023-05-08T04:01:22;102099.63;;;6.73;69.14
29825;BME280;16713;52.916;12.834;2023-05-08T04:03:53;102098.72;;;6.77;69.58
29825;BME280;16713;52.916;12.834;2023-05-08T04:06:28;102100.94;;;6.75;69.33
29825;BME280;16713;52.916;12.834;2023-05-08T04:09:25;102104.47;;;6.76;69.77
29825;BME280;16713;52.916;12.834;2023-05-08T04:14:23;102107.75;;;6.78;69.85
29825;BME280;16713;52.916;12.834;2023-05-08T04:16:51;102107.38;;;6.84;70.12
29825;BME280;16713;52.916;12.834;2023-05-08T04:19:23;102105.13;;;6.86;69.31
29825;BME280;16713;52.916;12.834;2023-05-08T04:21:53;102116.19;;;6.95;70.70
29825;BME280;16713;52.916;12.834;2023-05-08T04:24:20;102113.69;;;6.98;69.74
29825;BME280;16713;52.916;12.834;2023-05-08T04:26:48;102117.88;;;7.09;68.85
29825;BME280;16713;52.916;12.834;2023-05-08T04:29:14;102128.03;;;7.22;69.17
29825;BME280;16713;52.916;12.834;2023-05-08T04:31:42;102127.81;;;7.19;69.38
29825;BME280;16713;52.916;12.834;2023-05-08T04:34:08;102131.94;;;7.35;68.29
29825;BME280;16713;52.916;12.834;2023-05-08T04:36:35;102137.59;;;7.38;67.81
29825;BME280;16713;52.916;12.834;2023-05-08T04:39:01;102143.59;;;7.40;69.39
29825;BME280;16713;52.916;12.834;2023-05-08T04:41:28;102140.78;;;7.45;68.96
29825;BME280;16713;52.916;12.834;2023-05-08T04:43:55;102149.44;;;7.47;68.16
29825;BME280;16713;52.916;12.834;2023-05-08T04:46:21;102149.97;;;7.49;68.02
29825;BME280;16713;52.916;12.834;2023-05-08T04:48:49;102154.16;;;7.60;69.08
29825;BME280;16713;52.916;12.834;2023-05-08T04:51:16;102160.44;;;7.74;68.67
29825;BME280;16713;52.916;12.834;2023-05-08T04:53:42;102164.69;;;7.67;68.66
29825;BME280;16713;52.916;12.834;2023-05-08T04:56:08;102164.00;;;7.75;68.26
29825;BME280;16713;52.916;12.834;2023-05-08T04:58:35;102159.28;;;7.81;68.53
29825;BME280;16713;52.916;12.834;2023-05-08T05:01:01;102161.66;;;7.87;67.96
29825;BME280;16713;52.916;12.834;2023-05-08T05:03:28;102160.22;;;7.90;67.81
29825;BME280;16713;52.916;12.834;2023-05-08T05:05:58;102163.06;;;7.98;67.65
29825;BME280;16713;52.916;12.834;2023-05-08T05:08:25;102161.72;;;7.96;67.61
29825;BME280;16713;52.916;12.834;2023-05-08T05:10:51;102165.50;;;8.00;67.78
29825;BME280;16713;52.916;12.834;2023-05-08T05:13:18;102167.63;;;8.03;68.34
29825;BME280;16713;52.916;12.834;2023-05-08T05:15:45;102172.91;;;8.13;67.71
29825;BME280;16713;52.916;12.834;2023-05-08T05:18:11;102174.91;;;8.07;68.85
29825;BME280;16713;52.916;12.834;2023-05-08T05:20:38;102176.63;;;8.17;68.98
29825;BME280;16713;52.916;12.834;2023-05-08T05:23:04;102182.53;;;8.24;68.70
29825;BME280;16713;52.916;12.834;2023-05-08T05:25:30;102176.88;;;8.34;68.92
29825;BME280;16713;52.916;12.834;2023-05-08T05:27:57;102177.56;;;8.39;68.66
29825;BME280;16713;52.916;12.834;2023-05-08T05:30:23;102176.16;;;8.42;68.09
29825;BME280;16713;52.916;12.834;2023-05-08T05:32:50;102189.22;;;8.45;68.97
29825;BME280;16713;52.916;12.834;2023-05-08T05:35:16;102172.19;;;8.61;67.50
29825;BME280;16713;52.916;12.834;2023-05-08T05:37:42;102176.75;;;8.66;68.18
29825;BME280;16713;52.916;12.834;2023-05-08T05:40:09;102179.25;;;8.76;67.14
29825;BME280;16713;52.916;12.834;2023-05-08T05:42:38;102182.13;;;8.57;67.09
29825;BME280;16713;52.916;12.834;2023-05-08T05:45:04;102176.94;;;8.69;66.89
29825;BME280;16713;52.916;12.834;2023-05-08T05:47:31;102190.28;;;8.84;67.54
29825;BME280;16713;52.916;12.834;2023-05-08T05:49:57;102189.16;;;8.85;65.60
29825;BME280;16713;52.916;12.834;2023-05-08T05:52:23;102188.75;;;8.92;65.79
29825;BME280;16713;52.916;12.834;2023-05-08T05:54:50;102186.66;;;9.11;66.19
29825;BME280;16713;52.916;12.834;2023-05-08T05:57:16;102195.19;;;9.23;64.94
29825;BME280;16713;52.916;12.834;2023-05-08T05:59:43;102193.16;;;9.29;64.83
29825;BME280;16713;52.916;12.834;2023-05-08T06:02:09;102200.50;;;9.42;63.96
29825;BME280;16713;52.916;12.834;2023-05-08T06:04:39;102204.25;;;9.46;63.00
29825;BME280;16713;52.916;12.834;2023-05-08T06:07:05;102204.78;;;9.34;62.52
29825;BME280;16713;52.916;12.834;2023-05-08T06:09:32;102196.16;;;9.41;64.02
29825;BME280;16713;52.916;12.834;2023-05-08T06:11:58;102205.09;;;9.55;63.84
29825;BME280;16713;52.916;12.834;2023-05-08T06:14:25;102204.75;;;9.48;63.17
29825;BME280;16713;52.916;12.834;2023-05-08T06:16:51;102213.47;;;9.72;61.83
29825;BME280;16713;52.916;12.834;2023-05-08T06:19:18;102209.16;;;9.79;61.27
29825;BME280;16713;52.916;12.834;2023-05-08T06:21:44;102208.78;;;9.72;62.46
29825;BME280;16713;52.916;12.834;2023-05-08T06:24:10;102219.50;;;9.82;61.66
29825;BME280;16713;52.916;12.834;2023-05-08T06:26:37;102221.22;;;10.00;61.23
29825;BME280;16713;52.916;12.834;2023-05-08T06:29:03;102211.22;;;10.04;61.80
29825;BME280;16713;52.916;12.834;2023-05-08T06:31:29;102219.50;;;10.13;60.41
29825;BME280;16713;52.916;12.834;2023-05-08T06:33:56;102225.75;;;10.35;61.23
29825;BME280;16713;52.916;12.834;2023-05-08T06:36:22;102222.94;;;10.49;60.59
29825;BME280;16713;52.916;12.834;2023-05-08T06:38:49;102219.63;;;10.69;60.44
29825;BME280;16713;52.916;12.834;2023-05-08T06:41:15;102226.09;;;10.82;61.22
29825;BME280;16713;52.916;12.834;2023-05-08T06:43:41;102236.50;;;11.10;59.75
29825;BME280;16713;52.916;12.834;2023-05-08T06:46:08;102233.63;;;11.32;59.22
29825;BME280;16713;52.916;12.834;2023-05-08T06:48:34;102240.25;;;11.57;58.77
29825;BME280;16713;52.916;12.834;2023-05-08T06:51:01;102243.69;;;11.71;57.30
29825;BME280;16713;52.916;12.834;2023-05-08T06:53:27;102244.59;;;11.92;57.25
29825;BME280;16713;52.916;12.834;2023-05-08T06:55:54;102251.50;;;12.24;56.21
29825;BME280;16713;52.916;12.834;2023-05-08T06:58:20;102250.34;;;12.33;55.08
29825;BME280;16713;52.916;12.834;2023-05-08T07:00:46;102252.81;;;12.64;54.30
29825;BME280;16713;52.916;12.834;2023-05-08T07:03:13;102253.06;;;12.79;53.12
29825;BME280;16713;52.916;12.834;2023-05-08T07:05:39;102257.16;;;13.02;54.08
29825;BME280;16713;52.916;12.834;2023-05-08T07:08:05;102262.16;;;13.09;51.71
29825;BME280;16713;52.916;12.834;2023-05-08T07:10:32;102256.31;;;13.31;52.73
29825;BME280;16713;52.916;12.834;2023-05-08T07:12:58;102265.41;;;13.31;52.67
29825;BME280;16713;52.916;12.834;2023-05-08T07:15:25;102251.75;;;13.56;51.29
29825;BME280;16713;52.916;12.834;2023-05-08T07:17:52;102254.44;;;13.64;50.98
29825;BME280;16713;52.916;12.834;2023-05-08T07:20:19;102251.66;;;13.64;51.45
29825;BME280;16713;52.916;12.834;2023-05-08T07:22:46;102249.88;;;13.48;50.94
29825;BME280;16713;52.916;12.834;2023-05-08T07:25:12;102250.75;;;13.40;48.60
29825;BME280;16713;52.916;12.834;2023-05-08T07:27:39;102250.88;;;13.64;50.99
29825;BME280;16713;52.916;12.834;2023-05-08T07:30:05;102263.72;;;13.80;50.63
29825;BME280;16713;52.916;12.834;2023-05-08T07:32:32;102254.59;;;13.68;50.65
29825;BME280;16713;52.916;12.834;2023-05-08T07:34:58;102260.19;;;13.80;50.74
29825;BME280;16713;52.916;12.834;2023-05-08T07:37:25;102265.47;;;13.85;50.21
29825;BME280;16713;52.916;12.834;2023-05-08T07:39:51;102264.03;;;13.99;49.33
29825;BME280;16713;52.916;12.834;2023-05-08T07:42:18;102266.44;;;14.01;50.52
29825;BME280;16713;52.916;12.834;2023-05-08T07:44:44;102269.88;;;13.98;50.75
29825;BME280;16713;52.916;12.834;2023-05-08T07:47:20;102258.94;;;13.69;48.71
29825;BME280;16713;52.916;12.834;2023-05-08T07:49:46;102270.53;;;13.83;48.57
29825;BME280;16713;52.916;12.834;2023-05-08T07:52:13;102252.00;;;13.63;49.52
29825;BME280;16713;52.916;12.834;2023-05-08T07:54:39;102259.16;;;13.64;48.92
29825;BME280;16713;52.916;12.834;2023-05-08T07:57:05;102267.66;;;13.91;50.48
29825;BME280;16713;52.916;12.834;2023-05-08T07:59:32;102283.97;;;14.17;49.14
29825;BME280;16713;52.916;12.834;2023-05-08T08:01:58;102262.50;;;13.90;49.09
29825;BME280;16713;52.916;12.834;2023-05-08T08:04:24;102254.13;;;13.66;48.89
29825;BME280;16713;52.916;12.834;2023-05-08T08:06:51;102263.81;;;14.04;46.49
29825;BME280;16713;52.916;12.834;2023-05-08T08:09:17;102252.56;;;13.77;46.83
29825;BME280;16713;52.916;12.834;2023-05-08T08:11:43;102255.78;;;13.79;49.79
29825;BME280;16713;52.916;12.834;2023-05-08T08:14:10;102269.31;;;13.92;47.36
29825;BME280;16713;52.916;12.834;2023-05-08T08:16:36;102261.72;;;13.89;46.57
29825;BME280;16713;52.916;12.834;2023-05-08T08:19:03;102261.63;;;13.57;47.30
29825;BME280;16713;52.916;12.834;2023-05-08T08:21:29;102253.50;;;13.40;47.92
29825;BME280;16713;52.916;12.834;2023-05-08T08:23:56;102262.31;;;13.54;49.64
29825;BME280;16713;52.916;12.834;2023-05-08T08:26:23;102272.75;;;13.69;47.74
29825;BME280;16713;52.916;12.834;2023-05-08T08:28:50;102278.81;;;13.83;48.59
29825;BME280;16713;52.916;12.834;2023-05-08T08:31:16;102267.03;;;13.74;45.92
29825;BME280;16713;52.916;12.834;2023-05-08T08:33:45;102276.38;;;13.81;47.92
29825;BME280;16713;52.916;12.834;2023-05-08T08:36:12;102280.22;;;14.01;47.76
29825;BME280;16713;52.916;12.834;2023-05-08T08:38:39;102278.59;;;13.88;46.73
29825;BME280;16713;52.916;12.834;2023-05-08T08:41:05;102262.88;;;13.68;48.40
29825;BME280;16713;52.916;12.834;2023-05-08T08:43:32;102259.56;;;13.54;48.01
29825;BME280;16713;52.916;12.834;2023-05-08T08:46:03;102280.50;;;14.08;47.19
29825;BME280;16713;52.916;12.834;2023-05-08T08:48:35;102292.56;;;14.48;48.16
29825;BME280;16713;52.916;12.834;2023-05-08T08:51:03;102286.41;;;14.63;47.16
29825;BME280;16713;52.916;12.834;2023-05-08T08:53:34;102290.66;;;14.85;44.97
29825;BME280;16713;52.916;12.834;2023-05-08T08:56:02;102293.06;;;15.10;46.27
29825;BME280;16713;52.916;12.834;2023-05-08T08:58:40;102299.50;;;15.38;47.15
29825;BME280;16713;52.916;12.834;2023-05-08T09:01:15;102291.91;;;15.35;43.88
29825;BME280;16713;52.916;12.834;2023-05-08T09:03:43;102290.06;;;15.51;45.44
29825;BME280;16713;52.916;12.834;2023-05-08T09:06:11;102290.25;;;15.58;46.63
29825;BME280;16713;52.916;12.834;2023-05-08T09:08:37;102294.59;;;15.71;45.04
29825;BME280;16713;52.916;12.834;2023-05-08T09:11:05;102293.19;;;15.77;45.16
29825;BME280;16713;52.916;12.834;2023-05-08T09:13:31;102302.22;;;16.02;47.08
29825;BME280;16713;52.916;12.834;2023-05-08T09:15:58;102293.56;;;16.03;45.27
29825;BME280;16713;52.916;12.834;2023-05-08T09:18:25;102305.00;;;16.18;45.12
29825;BME280;16713;52.916;12.834;2023-05-08T09:20:51;102290.44;;;16.05;46.05
29825;BME280;16713;52.916;12.834;2023-05-08T09:23:18;102301.09;;;15.91;44.63
29825;BME280;16713;52.916;12.834;2023-05-08T09:25:48;102289.44;;;15.97;43.67
29825;BME280;16713;52.916;12.834;2023-05-08T09:28:19;102301.00;;;15.87;44.31
29825;BME280;16713;52.916;12.834;2023-05-08T09:30:52;102292.88;;;15.79;43.22
29825;BME280;16713;52.916;12.834;2023-05-08T09:33:19;102294.63;;;15.47;44.25
29825;BME280;16713;52.916;12.834;2023-05-08T09:35:46;102305.19;;;15.81;43.92
29825;BME280;16713;52.916;12.834;2023-05-08T09:38:31;102300.63;;;16.01;45.28
29825;BME280;16713;52.916;12.834;2023-05-08T09:41:12;102296.41;;;15.79;43.48
29825;BME280;16713;52.916;12.834;2023-05-08T09:43:41;102284.88;;;15.38;43.94
29825;BME280;16713;52.916;12.834;2023-05-08T09:46:20;102285.78;;;15.54;42.53
29825;BME280;16713;52.916;12.834;2023-05-08T09:48:54;102298.59;;;15.86;42.94
29825;BME280;16713;52.916;12.834;2023-05-08T09:51:21;102299.38;;;15.59;43.83
29825;BME280;16713;52.916;12.834;2023-05-08T09:53:54;102294.72;;;15.75;42.21
29825;BME280;16713;52.916;12.834;2023-05-08T09:59:24;102274.16;;;15.36;43.24
29825;BME280;16713;52.916;12.834;2023-05-08T10:01:54;102277.16;;;15.31;44.24
29825;BME280;16713;52.916;12.834;2023-05-08T10:04:34;102292.69;;;15.36;44.53
29825;BME280;16713;52.916;12.834;2023-05-08T10:07:01;102277.53;;;15.18;44.86
29825;BME280;16713;52.916;12.834;2023-05-08T10:09:27;102299.84;;;15.49;43.21
29825;BME280;16713;52.916;12.834;2023-05-08T10:12:12;102302.13;;;15.59;43.11
29825;BME280;16713;52.916;12.834;2023-05-08T10:14:38;102284.19;;;15.17;43.55
29825;BME280;16713;52.916;12.834;2023-05-08T10:17:05;102292.38;;;15.25;43.51
29825;BME280;16713;52.916;12.834;2023-05-08T10:19:33;102282.69;;;15.31;44.85
29825;BME280;16713;52.916;12.834;2023-05-08T10:22:01;102292.97;;;15.31;45.20
29825;BME280;16713;52.916;12.834;2023-05-08T10:24:32;102300.38;;;15.66;45.90
29825;BME280;16713;52.916;12.834;2023-05-08T10:27:02;102293.94;;;15.62;45.69
29825;BME280;16713;52.916;12.834;2023-05-08T10:29:37;102280.47;;;15.61;44.72
29825;BME280;16713;52.916;12.834;2023-05-08T10:32:08;102286.78;;;15.61;44.23
29825;BME280;16713;52.916;12.834;2023-05-08T10:34:34;102271.94;;;15.66;44.96
29825;BME280;16713;52.916;12.834;2023-05-08T10:37:06;102271.97;;;15.42;44.83
29825;BME280;16713;52.916;12.834;2023-05-08T10:39:34;102286.91;;;15.65;44.30
29825;BME280;16713;52.916;12.834;2023-05-08T10:42:01;102258.91;;;15.03;43.50
29825;BME280;16713;52.916;12.834;2023-05-08T10:44:28;102258.31;;;14.97;43.89
29825;BME280;16713;52.916;12.834;2023-05-08T10:47:00;102260.97;;;15.18;43.25
29825;BME280;16713;52.916;12.834;2023-05-08T10:49:46;102279.75;;;15.64;43.79
29825;BME280;16713;52.916;12.834;2023-05-08T10:52:19;102258.28;;;15.73;44.05
29825;BME280;16713;52.916;12.834;2023-05-08T10:57:12;102271.78;;;16.18;42.64
29825;BME280;16713;52.916;12.834;2023-05-08T10:59:43;102256.06;;;16.06;42.67
29825;BME280;16713;52.916;12.834;2023-05-08T11:02:10;102252.34;;;16.30;42.95
29825;BME280;16713;52.916;12.834;2023-05-08T11:04:36;102256.72;;;16.31;42.56
29825;BME280;16713;52.916;12.834;2023-05-08T11:07:03;102264.00;;;16.51;42.58
29825;BME280;16713;52.916;12.834;2023-05-08T11:09:44;102261.75;;;16.56;40.83
29825;BME280;16713;52.916;12.834;2023-05-08T11:14:38;102258.63;;;16.58;41.13
29825;BME280;16713;52.916;12.834;2023-05-08T11:17:06;102243.00;;;16.65;40.15
29825;BME280;16713;52.916;12.834;2023-05-08T11:19:33;102247.56;;;16.58;40.38
29825;BME280;16713;52.916;12.834;2023-05-08T11:24:36;102251.84;;;16.71;41.29
29825;BME280;16713;52.916;12.834;2023-05-08T11:27:03;102249.97;;;16.75;41.42
29825;BME280;16713;52.916;12.834;2023-05-08T11:29:29;102253.34;;;16.84;41.76
29825;BME280;16713;52.916;12.834;2023-05-08T11:31:55;102242.66;;;16.51;40.53
29825;BME280;16713;52.916;12.834;2023-05-08T11:37:24;102229.16;;;16.34;38.45
29825;BME280;16713;52.916;12.834;2023-05-08T11:39:51;102246.22;;;16.67;39.74
29825;BME280;16713;52.916;12.834;2023-05-08T11:45:08;102241.31;;;16.61;40.13
29825;BME280;16713;52.916;12.834;2023-05-08T11:47:39;102238.53;;;16.45;41.28
29825;BME280;16713;52.916;12.834;2023-05-08T11:50:07;102234.03;;;16.25;41.12
29825;BME280;16713;52.916;12.834;2023-05-08T11:52:34;102234.16;;;16.60;41.23
29825;BME280;16713;52.916;12.834;2023-05-08T11:55:05;102231.75;;;16.58;42.33
29825;BME280;16713;52.916;12.834;2023-05-08T11:57:32;102224.56;;;16.73;40.61
29825;BME280;16713;52.916;12.834;2023-05-08T12:00:05;102212.97;;;16.52;42.36
29825;BME280;16713;52.916;12.834;2023-05-08T12:02:37;102215.13;;;16.43;41.00
29825;BME280;16713;52.916;12.834;2023-05-08T12:05:05;102200.25;;;16.20;40.97
29825;BME280;16713;52.916;12.834;2023-05-08T12:07:32;102212.28;;;16.39;41.37
29825;BME280;16713;52.916;12.834;2023-05-08T12:10:01;102203.28;;;16.14;41.02
29825;BME280;16713;52.916;12.834;2023-05-08T12:12:37;102201.22;;;15.96;41.22
29825;BME280;16713;52.916;12.834;2023-05-08T12:15:05;102207.69;;;16.16;40.94
29825;BME280;16713;52.916;12.834;2023-05-08T12:17:31;102208.09;;;16.18;40.73
29825;BME280;16713;52.916;12.834;2023-05-08T12:20:07;102203.09;;;16.35;40.91
29825;BME280;16713;52.916;12.834;2023-05-08T12:22:34;102196.25;;;16.17;41.19
29825;BME280;16713;52.916;12.834;2023-05-08T12:25:02;102177.91;;;15.81;41.06
29825;BME280;16713;52.916;12.834;2023-05-08T12:27:28;102196.25;;;16.33;41.73
29825;BME280;16713;52.916;12.834;2023-05-08T12:29:55;102175.97;;;15.97;41.14
29825;BME280;16713;52.916;12.834;2023-05-08T12:32:22;102206.00;;;16.11;41.73
29825;BME280;16713;52.916;12.834;2023-05-08T12:34:48;102172.22;;;15.90;40.93
29825;BME280;16713;52.916;12.834;2023-05-08T12:37:27;102185.78;;;15.95;41.08
29825;BME280;16713;52.916;12.834;2023-05-08T12:39:54;102181.94;;;16.31;40.45
29825;BME280;16713;52.916;12.834;2023-05-08T12:42:20;102174.44;;;16.00;42.00
29825;BME280;16713;52.916;12.834;2023-05-08T12:44:50;102186.69;;;16.30;41.25
29825;BME280;16713;52.916;12.834;2023-05-08T12:47:17;102177.94;;;16.28;41.40
29825;BME280;16713;52.916;12.834;2023-05-08T12:49:43;102160.69;;;16.03;41.10
29825;BME280;16713;52.916;12.834;2023-05-08T12:52:13;102166.28;;;15.76;40.84
29825;BME280;16713;52.916;12.834;2023-05-08T12:54:41;102162.47;;;16.11;40.73
29825;BME280;16713;52.916;12.834;2023-05-08T12:57:15;102176.44;;;16.46;41.05
29825;BME280;16713;52.916;12.834;2023-05-08T12:59:42;102174.88;;;16.64;40.47
29825;BME280;16713;52.916;12.834;2023-05-08T13:02:15;102171.56;;;16.74;39.49
29825;BME280;16713;52.916;12.834;2023-05-08T13:04:42;102170.22;;;17.03;39.42
29825;BME280;16713;52.916;12.834;2023-05-08T13:07:09;102173.81;;;17.03;39.70
29825;BME280;16713;52.916;12.834;2023-05-08T13:09:35;102164.88;;;17.29;38.66
29825;BME280;16713;52.916;12.834;2023-05-08T13:12:02;102160.22;;;17.33;39.87
29825;BME280;16713;52.916;12.834;2023-05-08T13:14:28;102162.53;;;17.50;38.31
29825;BME280;16713;52.916;12.834;2023-05-08T13:16:55;102152.19;;;17.47;39.01
29825;BME280;16713;52.916;12.834;2023-05-08T13:19:21;102156.41;;;17.60;39.00
29825;BME280;16713;52.916;12.834;2023-05-08T13:21:47;102150.28;;;17.51;38.95
29825;BME280;16713;52.916;12.834;2023-05-08T13:24:14;102151.97;;;17.56;38.47
29825;BME280;16713;52.916;12.834;2023-05-08T13:26:41;102146.97;;;17.65;38.53
29825;BME280;16713;52.916;12.834;2023-05-08T13:29:07;102143.19;;;17.54;38.49
29825;BME280;16713;52.916;12.834;2023-05-08T13:31:34;102144.88;;;17.58;39.12